Hampton, Connecticut
Current Conditions -  °F | °C
As of 9:11 PM on Wednesday 26 Nov 2014 (Local Time) from KIJD Reporting Station
Light Rain Light Rain  
Wind Chill: 26°   Ceiling: 1400
Heat Index: 35°   Visibility: 3mi
Dew Point: 32°   Wind: 13mph
Humidity: 89%   Direction: 360°N
Pressure: 29.71"   Gusts: NA
Location:  41.78°N, 72.06°W
Report Text: KIJD 270211Z AUTO 36011KT 3SM -RA BR BKN014 OVC019 02/00 A2971 RMK AO2 P0001 T00170000
Loading
Personal Weather Stations






























Interactive Weather Map New forecast layout! Learn more

10-Day Weather Forecast

Advertisements
Track Severe Weather on mobile